sensor_id;sensor_type;location;lat;lon;timestamp;pressure;altitude;pressure_sealevel;temperature;humidity
36932;BME280;22847;42.654;23.370;2023-08-06T00:01:11;93545.25;;;22.68;nan
36932;BME280;22847;42.654;23.370;2023-08-06T00:03:37;93572.19;;;22.93;nan
36932;BME280;22847;42.654;23.370;2023-08-06T00:06:05;93572.97;;;22.72;nan
36932;BME280;22847;42.654;23.370;2023-08-06T00:08:31;93579.41;;;22.98;nan
36932;BME280;22847;42.654;23.370;2023-08-06T00:10:56;93606.28;;;23.18;nan
36932;BME280;22847;42.654;23.370;2023-08-06T00:13:21;93589.69;;;23.11;nan
36932;BME280;22847;42.654;23.370;2023-08-06T00:15:47;93643.69;;;23.11;nan
36932;BME280;22847;42.654;23.370;2023-08-06T00:18:12;93566.63;;;23.17;nan
36932;BME280;22847;42.654;23.370;2023-08-06T00:20:40;93594.03;;;23.17;nan
36932;BME280;22847;42.654;23.370;2023-08-06T00:23:07;93584.56;;;23.26;nan
36932;BME280;22847;42.654;23.370;2023-08-06T00:25:33;93574.91;;;23.20;nan
36932;BME280;22847;42.654;23.370;2023-08-06T00:27:58;93578.72;;;23.29;nan
36932;BME280;22847;42.654;23.370;2023-08-06T00:30:24;93515.44;;;23.04;nan
36932;BME280;22847;42.654;23.370;2023-08-06T00:32:49;93556.00;;;23.43;nan
36932;BME280;22847;42.654;23.370;2023-08-06T00:35:15;93572.97;;;23.37;nan
36932;BME280;22847;42.654;23.370;2023-08-06T00:37:41;93591.50;;;23.27;nan
36932;BME280;22847;42.654;23.370;2023-08-06T00:40:07;93543.13;;;23.08;nan
36932;BME280;22847;42.654;23.370;2023-08-06T00:42:33;93547.38;;;23.31;nan
36932;BME280;22847;42.654;23.370;2023-08-06T00:45:00;93473.47;;;22.85;nan
36932;BME280;22847;42.654;23.370;2023-08-06T00:47:26;93433.97;;;22.50;nan
36932;BME280;22847;42.654;23.370;2023-08-06T00:49:51;93530.06;;;23.07;nan
36932;BME280;22847;42.654;23.370;2023-08-06T00:52:17;93440.56;;;22.69;nan
36932;BME280;22847;42.654;23.370;2023-08-06T00:54:43;93449.97;;;22.77;nan
36932;BME280;22847;42.654;23.370;2023-08-06T00:57:09;93552.34;;;23.44;nan
36932;BME280;22847;42.654;23.370;2023-08-06T00:59:35;93559.28;;;23.45;nan
36932;BME280;22847;42.654;23.370;2023-08-06T01:02:01;93402.97;;;22.60;nan
36932;BME280;22847;42.654;23.370;2023-08-06T01:04:26;93519.22;;;23.35;nan
36932;BME280;22847;42.654;23.370;2023-08-06T01:07:03;93523.16;;;23.33;nan
36932;BME280;22847;42.654;23.370;2023-08-06T01:09:56;93517.66;;;23.39;nan
36932;BME280;22847;42.654;23.370;2023-08-06T01:12:36;93516.03;;;23.38;nan
36932;BME280;22847;42.654;23.370;2023-08-06T01:15:23;93503.66;;;23.22;nan
36932;BME280;22847;42.654;23.370;2023-08-06T01:17:50;93418.25;;;22.70;nan
36932;BME280;22847;42.654;23.370;2023-08-06T01:20:15;93524.94;;;23.22;nan
36932;BME280;22847;42.654;23.370;2023-08-06T01:22:40;93497.53;;;23.22;nan
36932;BME280;22847;42.654;23.370;2023-08-06T01:25:07;93490.94;;;23.29;nan
36932;BME280;22847;42.654;23.370;2023-08-06T01:27:45;93491.66;;;23.46;nan
36932;BME280;22847;42.654;23.370;2023-08-06T01:30:14;93400.59;;;22.81;nan
36932;BME280;22847;42.654;23.370;2023-08-06T01:32:49;93388.91;;;22.82;nan
36932;BME280;22847;42.654;23.370;2023-08-06T01:35:16;93493.72;;;23.39;nan
36932;BME280;22847;42.654;23.370;2023-08-06T01:37:43;93505.81;;;23.25;nan
36932;BME280;22847;42.654;23.370;2023-08-06T01:40:12;93467.72;;;23.20;nan
36932;BME280;22847;42.654;23.370;2023-08-06T01:42:39;93484.94;;;23.39;nan
36932;BME280;22847;42.654;23.370;2023-08-06T01:45:06;93477.41;;;23.31;nan
36932;BME280;22847;42.654;23.370;2023-08-06T01:47:32;93391.63;;;22.87;nan
36932;BME280;22847;42.654;23.370;2023-08-06T01:49:57;93492.41;;;23.42;nan
36932;BME280;22847;42.654;23.370;2023-08-06T01:52:23;93483.16;;;23.44;nan
36932;BME280;22847;42.654;23.370;2023-08-06T01:54:48;93488.41;;;23.39;nan
36932;BME280;22847;42.654;23.370;2023-08-06T01:57:13;93397.69;;;22.82;nan
36932;BME280;22847;42.654;23.370;2023-08-06T01:59:39;93393.91;;;22.56;nan
36932;BME280;22847;42.654;23.370;2023-08-06T02:02:04;93475.44;;;23.21;nan
36932;BME280;22847;42.654;23.370;2023-08-06T02:04:30;93464.75;;;23.16;nan
36932;BME280;22847;42.654;23.370;2023-08-06T02:06:55;93463.88;;;23.05;nan
36932;BME280;22847;42.654;23.370;2023-08-06T02:09:20;93475.25;;;23.28;nan
36932;BME280;22847;42.654;23.370;2023-08-06T02:11:46;93462.72;;;23.28;nan
36932;BME280;22847;42.654;23.370;2023-08-06T02:14:11;93350.28;;;22.52;nan
36932;BME280;22847;42.654;23.370;2023-08-06T02:16:37;93479.53;;;23.07;nan
36932;BME280;22847;42.654;23.370;2023-08-06T02:19:02;93475.13;;;22.91;nan
36932;BME280;22847;42.654;23.370;2023-08-06T02:21:28;93474.09;;;22.92;nan
36932;BME280;22847;42.654;23.370;2023-08-06T02:23:53;93492.47;;;22.98;nan
36932;BME280;22847;42.654;23.370;2023-08-06T02:26:19;93419.94;;;22.54;nan
36932;BME280;22847;42.654;23.370;2023-08-06T02:28:44;93497.13;;;22.64;nan
36932;BME280;22847;42.654;23.370;2023-08-06T02:31:10;93414.94;;;21.98;nan
36932;BME280;22847;42.654;23.370;2023-08-06T02:33:35;93392.25;;;21.90;nan
36932;BME280;22847;42.654;23.370;2023-08-06T02:36:01;93454.63;;;22.26;nan
36932;BME280;22847;42.654;23.370;2023-08-06T02:38:28;93469.19;;;22.02;nan
36932;BME280;22847;42.654;23.370;2023-08-06T02:40:54;93483.91;;;22.31;nan
36932;BME280;22847;42.654;23.370;2023-08-06T02:43:20;93406.13;;;21.59;nan
36932;BME280;22847;42.654;23.370;2023-08-06T02:45:46;93521.78;;;22.43;nan
36932;BME280;22847;42.654;23.370;2023-08-06T02:48:11;93450.34;;;21.87;nan
36932;BME280;22847;42.654;23.370;2023-08-06T02:50:40;93409.19;;;21.67;nan
36932;BME280;22847;42.654;23.370;2023-08-06T02:53:07;93387.94;;;21.67;nan
36932;BME280;22847;42.654;23.370;2023-08-06T02:55:33;93492.28;;;22.61;nan
36932;BME280;22847;42.654;23.370;2023-08-06T02:58:02;93480.53;;;22.57;nan
36932;BME280;22847;42.654;23.370;2023-08-06T03:00:28;93363.78;;;21.47;nan
36932;BME280;22847;42.654;23.370;2023-08-06T03:02:53;93389.72;;;21.78;nan
36932;BME280;22847;42.654;23.370;2023-08-06T03:05:19;93424.88;;;22.67;nan
36932;BME280;22847;42.654;23.370;2023-08-06T03:07:45;93470.28;;;23.36;nan
36932;BME280;22847;42.654;23.370;2023-08-06T03:10:10;93405.91;;;23.39;nan
36932;BME280;22847;42.654;23.370;2023-08-06T03:12:36;93368.88;;;23.65;nan
36932;BME280;22847;42.654;23.370;2023-08-06T03:15:01;93414.44;;;24.57;nan
36932;BME280;22847;42.654;23.370;2023-08-06T03:17:28;93377.34;;;22.98;nan
36932;BME280;22847;42.654;23.370;2023-08-06T03:19:54;93461.69;;;23.56;nan
36932;BME280;22847;42.654;23.370;2023-08-06T03:22:19;93468.38;;;23.59;nan
36932;BME280;22847;42.654;23.370;2023-08-06T03:24:44;93316.13;;;23.56;nan
36932;BME280;22847;42.654;23.370;2023-08-06T03:27:10;93454.88;;;25.01;nan
36932;BME280;22847;42.654;23.370;2023-08-06T03:29:35;93480.16;;;23.68;nan
36932;BME280;22847;42.654;23.370;2023-08-06T03:32:01;93492.09;;;22.46;nan
36932;BME280;22847;42.654;23.370;2023-08-06T03:34:26;93400.28;;;22.12;nan
36932;BME280;22847;42.654;23.370;2023-08-06T03:36:51;93470.75;;;23.33;nan
36932;BME280;22847;42.654;23.370;2023-08-06T03:39:17;93382.09;;;23.49;nan
36932;BME280;22847;42.654;23.370;2023-08-06T03:41:42;93467.16;;;24.45;nan
36932;BME280;22847;42.654;23.370;2023-08-06T03:44:07;93444.75;;;24.46;nan
36932;BME280;22847;42.654;23.370;2023-08-06T03:46:33;93402.72;;;24.11;nan
36932;BME280;22847;42.654;23.370;2023-08-06T03:48:59;93517.91;;;24.70;nan
36932;BME280;22847;42.654;23.370;2023-08-06T03:51:25;93497.38;;;24.71;nan
36932;BME280;22847;42.654;23.370;2023-08-06T03:53:50;93507.03;;;22.91;nan
36932;BME280;22847;42.654;23.370;2023-08-06T03:56:16;93440.13;;;21.78;nan
36932;BME280;22847;42.654;23.370;2023-08-06T03:58:41;93496.91;;;22.49;nan
36932;BME280;22847;42.654;23.370;2023-08-06T04:01:07;93431.09;;;23.00;nan
36932;BME280;22847;42.654;23.370;2023-08-06T04:03:32;93531.22;;;24.23;nan
36932;BME280;22847;42.654;23.370;2023-08-06T04:05:57;93541.34;;;25.15;nan
36932;BME280;22847;42.654;23.370;2023-08-06T04:08:23;93482.34;;;25.07;nan
36932;BME280;22847;42.654;23.370;2023-08-06T04:10:52;93532.63;;;25.50;nan
36932;BME280;22847;42.654;23.370;2023-08-06T04:13:17;93440.16;;;24.36;nan
36932;BME280;22847;42.654;23.370;2023-08-06T04:15:43;93507.41;;;23.80;nan
36932;BME280;22847;42.654;23.370;2023-08-06T04:18:08;93486.34;;;23.46;nan
36932;BME280;22847;42.654;23.370;2023-08-06T04:20:34;93488.78;;;23.80;nan
36932;BME280;22847;42.654;23.370;2023-08-06T04:23:05;93503.03;;;24.32;nan
36932;BME280;22847;42.654;23.370;2023-08-06T04:25:31;93450.56;;;24.38;nan
36932;BME280;22847;42.654;23.370;2023-08-06T04:27:56;93486.84;;;24.96;nan
36932;BME280;22847;42.654;23.370;2023-08-06T04:30:22;93476.78;;;25.23;nan
36932;BME280;22847;42.654;23.370;2023-08-06T04:32:49;93470.44;;;25.40;nan
36932;BME280;22847;42.654;23.370;2023-08-06T04:35:15;93491.59;;;25.66;nan
36932;BME280;22847;42.654;23.370;2023-08-06T04:37:40;93437.38;;;25.71;nan
36932;BME280;22847;42.654;23.370;2023-08-06T04:40:06;93479.03;;;26.28;nan
36932;BME280;22847;42.654;23.370;2023-08-06T04:42:32;93403.44;;;25.92;nan
36932;BME280;22847;42.654;23.370;2023-08-06T04:44:57;93467.50;;;26.47;nan
36932;BME280;22847;42.654;23.370;2023-08-06T04:47:22;93376.72;;;26.07;nan
36932;BME280;22847;42.654;23.370;2023-08-06T04:49:48;93367.34;;;26.09;nan
36932;BME280;22847;42.654;23.370;2023-08-06T04:52:13;93431.84;;;26.67;nan
36932;BME280;22847;42.654;23.370;2023-08-06T04:54:39;93417.69;;;26.67;nan
36932;BME280;22847;42.654;23.370;2023-08-06T04:57:04;93425.50;;;26.53;nan
36932;BME280;22847;42.654;23.370;2023-08-06T04:59:30;93428.69;;;26.60;nan
36932;BME280;22847;42.654;23.370;2023-08-06T05:01:55;93403.25;;;26.62;nan
36932;BME280;22847;42.654;23.370;2023-08-06T05:04:21;93353.91;;;26.35;nan
36932;BME280;22847;42.654;23.370;2023-08-06T05:06:46;93286.72;;;25.92;nan
36932;BME280;22847;42.654;23.370;2023-08-06T05:09:11;93421.63;;;26.84;nan
36932;BME280;22847;42.654;23.370;2023-08-06T05:11:37;93436.16;;;26.63;nan
36932;BME280;22847;42.654;23.370;2023-08-06T05:14:02;93300.56;;;25.99;nan
36932;BME280;22847;42.654;23.370;2023-08-06T05:16:28;93437.97;;;26.83;nan
36932;BME280;22847;42.654;23.370;2023-08-06T05:18:53;93451.91;;;26.75;nan
36932;BME280;22847;42.654;23.370;2023-08-06T05:21:18;93308.94;;;25.52;nan
36932;BME280;22847;42.654;23.370;2023-08-06T05:23:44;93448.25;;;26.45;nan
36932;BME280;22847;42.654;23.370;2023-08-06T05:26:09;93416.88;;;26.66;nan
36932;BME280;22847;42.654;23.370;2023-08-06T05:28:35;93412.56;;;26.75;nan
36932;BME280;22847;42.654;23.370;2023-08-06T05:31:04;93364.00;;;26.48;nan
36932;BME280;22847;42.654;23.370;2023-08-06T05:33:30;93351.53;;;26.33;nan
36932;BME280;22847;42.654;23.370;2023-08-06T05:35:55;93443.44;;;27.12;nan
36932;BME280;22847;42.654;23.370;2023-08-06T05:38:21;93436.41;;;27.26;nan
36932;BME280;22847;42.654;23.370;2023-08-06T05:40:46;93337.47;;;25.97;nan
36932;BME280;22847;42.654;23.370;2023-08-06T05:43:12;93413.09;;;26.82;nan
36932;BME280;22847;42.654;23.370;2023-08-06T05:45:38;93410.75;;;26.66;nan
36932;BME280;22847;42.654;23.370;2023-08-06T05:48:04;93318.75;;;25.97;nan
36932;BME280;22847;42.654;23.370;2023-08-06T05:50:29;93412.19;;;26.38;nan
36932;BME280;22847;42.654;23.370;2023-08-06T05:52:54;93316.31;;;26.11;nan
36932;BME280;22847;42.654;23.370;2023-08-06T05:55:20;93404.75;;;26.84;nan
36932;BME280;22847;42.654;23.370;2023-08-06T05:57:46;93340.22;;;26.56;nan
36932;BME280;22847;42.654;23.370;2023-08-06T06:00:11;93404.72;;;26.99;nan
36932;BME280;22847;42.654;23.370;2023-08-06T06:02:37;93395.19;;;26.73;nan
36932;BME280;22847;42.654;23.370;2023-08-06T06:05:02;93355.34;;;26.71;nan
36932;BME280;22847;42.654;23.370;2023-08-06T06:07:28;93432.59;;;27.37;nan
36932;BME280;22847;42.654;23.370;2023-08-06T06:09:53;93360.41;;;27.22;nan
36932;BME280;22847;42.654;23.370;2023-08-06T06:12:18;93379.25;;;27.50;nan
36932;BME280;22847;42.654;23.370;2023-08-06T06:14:44;93362.97;;;27.42;nan
36932;BME280;22847;42.654;23.370;2023-08-06T06:17:10;93456.19;;;28.08;nan
36932;BME280;22847;42.654;23.370;2023-08-06T06:19:35;93460.28;;;28.00;nan
36932;BME280;22847;42.654;23.370;2023-08-06T06:22:00;93388.78;;;27.23;nan
36932;BME280;22847;42.654;23.370;2023-08-06T06:24:26;93475.50;;;27.27;nan
36932;BME280;22847;42.654;23.370;2023-08-06T06:26:51;93475.84;;;27.10;nan
36932;BME280;22847;42.654;23.370;2023-08-06T06:29:16;93393.47;;;26.38;nan
36932;BME280;22847;42.654;23.370;2023-08-06T06:31:42;93464.03;;;26.42;nan
36932;BME280;22847;42.654;23.370;2023-08-06T06:34:07;93465.41;;;26.09;nan
36932;BME280;22847;42.654;23.370;2023-08-06T06:36:33;93430.66;;;26.24;nan
36932;BME280;22847;42.654;23.370;2023-08-06T06:38:58;93414.13;;;26.07;nan
36932;BME280;22847;42.654;23.370;2023-08-06T06:41:23;93413.59;;;25.64;nan
36932;BME280;22847;42.654;23.370;2023-08-06T06:43:49;93491.59;;;26.02;nan
36932;BME280;22847;42.654;23.370;2023-08-06T06:46:14;93418.13;;;25.59;nan
36932;BME280;22847;42.654;23.370;2023-08-06T06:48:40;93495.50;;;25.49;nan
36932;BME280;22847;42.654;23.370;2023-08-06T06:51:05;93502.78;;;25.99;nan
36932;BME280;22847;42.654;23.370;2023-08-06T06:53:30;93414.69;;;25.73;nan
36932;BME280;22847;42.654;23.370;2023-08-06T06:56:01;93420.28;;;25.67;nan
36932;BME280;22847;42.654;23.370;2023-08-06T06:58:27;93515.63;;;25.97;nan
36932;BME280;22847;42.654;23.370;2023-08-06T07:00:52;93504.41;;;26.15;nan
36932;BME280;22847;42.654;23.370;2023-08-06T07:03:19;93517.00;;;26.30;nan
36932;BME280;22847;42.654;23.370;2023-08-06T07:05:45;93443.75;;;25.95;nan
36932;BME280;22847;42.654;23.370;2023-08-06T07:08:11;93497.16;;;26.56;nan
36932;BME280;22847;42.654;23.370;2023-08-06T07:10:36;93431.47;;;26.25;nan
36932;BME280;22847;42.654;23.370;2023-08-06T07:13:02;93519.28;;;26.92;nan
36932;BME280;22847;42.654;23.370;2023-08-06T07:15:27;93520.78;;;27.13;nan
36932;BME280;22847;42.654;23.370;2023-08-06T07:17:53;93457.78;;;26.77;nan
36932;BME280;22847;42.654;23.370;2023-08-06T07:20:18;93527.22;;;27.12;nan
36932;BME280;22847;42.654;23.370;2023-08-06T07:22:44;93538.25;;;27.00;nan
36932;BME280;22847;42.654;23.370;2023-08-06T07:25:10;93533.97;;;26.99;nan
36932;BME280;22847;42.654;23.370;2023-08-06T07:27:36;93536.41;;;26.86;nan
36932;BME280;22847;42.654;23.370;2023-08-06T07:30:01;93530.41;;;27.24;nan
36932;BME280;22847;42.654;23.370;2023-08-06T07:32:27;93513.34;;;27.00;nan
36932;BME280;22847;42.654;23.370;2023-08-06T07:34:53;93538.84;;;26.62;nan
36932;BME280;22847;42.654;23.370;2023-08-06T07:37:22;93424.50;;;26.13;nan
36932;BME280;22847;42.654;23.370;2023-08-06T07:39:48;93539.69;;;27.42;nan
36932;BME280;22847;42.654;23.370;2023-08-06T07:42:13;93536.91;;;28.01;nan
36932;BME280;22847;42.654;23.370;2023-08-06T07:44:39;93561.13;;;28.30;nan
36932;BME280;22847;42.654;23.370;2023-08-06T07:47:05;93544.38;;;28.43;nan
36932;BME280;22847;42.654;23.370;2023-08-06T07:49:30;93557.94;;;28.57;nan
36932;BME280;22847;42.654;23.370;2023-08-06T07:51:56;93530.16;;;28.43;nan
36932;BME280;22847;42.654;23.370;2023-08-06T07:54:21;93543.84;;;28.70;nan
36932;BME280;22847;42.654;23.370;2023-08-06T07:56:47;93532.19;;;28.85;nan
36932;BME280;22847;42.654;23.370;2023-08-06T07:59:13;93535.06;;;29.17;nan
36932;BME280;22847;42.654;23.370;2023-08-06T08:01:38;93477.25;;;29.01;nan
36932;BME280;22847;42.654;23.370;2023-08-06T08:04:04;93500.09;;;29.22;nan
36932;BME280;22847;42.654;23.370;2023-08-06T08:06:30;93496.78;;;29.30;nan
36932;BME280;22847;42.654;23.370;2023-08-06T08:08:55;93531.25;;;29.42;nan
36932;BME280;22847;42.654;23.370;2023-08-06T08:11:21;93460.81;;;29.26;nan
36932;BME280;22847;42.654;23.370;2023-08-06T08:13:46;93445.63;;;29.40;nan
36932;BME280;22847;42.654;23.370;2023-08-06T08:16:11;93487.00;;;29.58;nan
36932;BME280;22847;42.654;23.370;2023-08-06T08:18:37;93468.63;;;29.46;nan
36932;BME280;22847;42.654;23.370;2023-08-06T08:21:02;93535.94;;;29.74;nan
36932;BME280;22847;42.654;23.370;2023-08-06T08:23:28;93516.78;;;29.61;nan
36932;BME280;22847;42.654;23.370;2023-08-06T08:25:53;93518.03;;;29.26;nan
36932;BME280;22847;42.654;23.370;2023-08-06T08:28:19;93456.94;;;28.18;nan
36932;BME280;22847;42.654;23.370;2023-08-06T08:30:45;93533.91;;;28.08;nan
36932;BME280;22847;42.654;23.370;2023-08-06T08:33:10;93447.59;;;28.11;nan
36932;BME280;22847;42.654;23.370;2023-08-06T08:35:36;93534.59;;;28.86;nan
36932;BME280;22847;42.654;23.370;2023-08-06T08:38:02;93519.28;;;28.87;nan
36932;BME280;22847;42.654;23.370;2023-08-06T08:40:31;93457.31;;;28.59;nan
36932;BME280;22847;42.654;23.370;2023-08-06T08:43:01;93473.16;;;28.85;nan
36932;BME280;22847;42.654;23.370;2023-08-06T08:45:29;93532.38;;;28.93;nan
36932;BME280;22847;42.654;23.370;2023-08-06T08:47:55;93526.03;;;28.84;nan
36932;BME280;22847;42.654;23.370;2023-08-06T08:50:21;93528.53;;;28.75;nan
36932;BME280;22847;42.654;23.370;2023-08-06T08:52:47;93537.22;;;29.15;nan
36932;BME280;22847;42.654;23.370;2023-08-06T08:55:15;93497.81;;;29.10;nan
36932;BME280;22847;42.654;23.370;2023-08-06T08:57:40;93468.00;;;28.88;nan
36932;BME280;22847;42.654;23.370;2023-08-06T09:00:06;93512.59;;;28.55;nan
36932;BME280;22847;42.654;23.370;2023-08-06T09:02:33;93514.66;;;28.92;nan
36932;BME280;22847;42.654;23.370;2023-08-06T09:05:00;93505.25;;;28.66;nan
36932;BME280;22847;42.654;23.370;2023-08-06T09:07:30;93432.00;;;28.42;nan
36932;BME280;22847;42.654;23.370;2023-08-06T09:09:57;93442.19;;;28.68;nan
36932;BME280;22847;42.654;23.370;2023-08-06T09:12:24;93516.41;;;29.49;nan
36932;BME280;22847;42.654;23.370;2023-08-06T09:14:50;93475.16;;;29.40;nan
36932;BME280;22847;42.654;23.370;2023-08-06T09:17:16;93493.16;;;29.40;nan
36932;BME280;22847;42.654;23.370;2023-08-06T09:19:45;93496.88;;;29.20;nan
36932;BME280;22847;42.654;23.370;2023-08-06T09:22:12;93487.13;;;29.05;nan
36932;BME280;22847;42.654;23.370;2023-08-06T09:24:40;93476.09;;;28.59;nan
36932;BME280;22847;42.654;23.370;2023-08-06T09:27:11;93486.03;;;29.06;nan
36932;BME280;22847;42.654;23.370;2023-08-06T09:29:43;93491.28;;;29.40;nan
36932;BME280;22847;42.654;23.370;2023-08-06T09:32:08;93490.03;;;29.33;nan
36932;BME280;22847;42.654;23.370;2023-08-06T09:34:34;93488.97;;;29.28;nan
36932;BME280;22847;42.654;23.370;2023-08-06T09:36:59;93472.06;;;29.28;nan
36932;BME280;22847;42.654;23.370;2023-08-06T09:39:29;93471.03;;;29.48;nan
36932;BME280;22847;42.654;23.370;2023-08-06T09:42:00;93433.22;;;29.02;nan
36932;BME280;22847;42.654;23.370;2023-08-06T09:44:27;93449.41;;;29.15;nan
36932;BME280;22847;42.654;23.370;2023-08-06T09:46:57;93468.69;;;29.41;nan
36932;BME280;22847;42.654;23.370;2023-08-06T09:49:27;93450.03;;;28.89;nan
36932;BME280;22847;42.654;23.370;2023-08-06T09:51:53;93478.66;;;28.69;nan
36932;BME280;22847;42.654;23.370;2023-08-06T09:54:22;93489.22;;;28.61;nan
36932;BME280;22847;42.654;23.370;2023-08-06T09:56:48;93485.41;;;28.38;nan
36932;BME280;22847;42.654;23.370;2023-08-06T09:59:13;93479.84;;;28.01;nan
36932;BME280;22847;42.654;23.370;2023-08-06T10:01:41;93458.13;;;27.68;nan
36932;BME280;22847;42.654;23.370;2023-08-06T10:04:07;93474.03;;;27.88;nan
36932;BME280;22847;42.654;23.370;2023-08-06T10:06:37;93486.66;;;28.22;nan
36932;BME280;22847;42.654;23.370;2023-08-06T10:09:06;93481.38;;;28.12;nan
36932;BME280;22847;42.654;23.370;2023-08-06T10:11:31;93490.13;;;27.83;nan
36932;BME280;22847;42.654;23.370;2023-08-06T10:14:02;93465.19;;;27.54;nan
36932;BME280;22847;42.654;23.370;2023-08-06T10:16:29;93452.19;;;27.71;nan
36932;BME280;22847;42.654;23.370;2023-08-06T10:18:55;93488.34;;;28.13;nan
36932;BME280;22847;42.654;23.370;2023-08-06T10:21:23;93486.13;;;28.20;nan
36932;BME280;22847;42.654;23.370;2023-08-06T10:23:54;93490.78;;;28.38;nan
36932;BME280;22847;42.654;23.370;2023-08-06T10:26:20;93495.19;;;28.24;nan
36932;BME280;22847;42.654;23.370;2023-08-06T10:28:45;93496.34;;;28.18;nan
36932;BME280;22847;42.654;23.370;2023-08-06T10:31:11;93472.38;;;27.92;nan
36932;BME280;22847;42.654;23.370;2023-08-06T10:33:44;93509.97;;;28.21;nan
36932;BME280;22847;42.654;23.370;2023-08-06T10:36:10;93491.44;;;27.91;nan
36932;BME280;22847;42.654;23.370;2023-08-06T10:38:47;93501.47;;;27.75;nan
36932;BME280;22847;42.654;23.370;2023-08-06T10:41:32;93478.22;;;27.66;nan
36932;BME280;22847;42.654;23.370;2023-08-06T10:44:10;93511.66;;;27.73;nan
36932;BME280;22847;42.654;23.370;2023-08-06T10:46:36;93496.09;;;27.26;nan
36932;BME280;22847;42.654;23.370;2023-08-06T10:49:03;93514.25;;;27.39;nan
36932;BME280;22847;42.654;23.370;2023-08-06T10:51:29;93515.03;;;27.45;nan
36932;BME280;22847;42.654;23.370;2023-08-06T10:53:55;93513.25;;;27.20;nan
36932;BME280;22847;42.654;23.370;2023-08-06T10:56:22;93521.59;;;27.19;nan
36932;BME280;22847;42.654;23.370;2023-08-06T10:58:49;93510.50;;;27.40;nan
36932;BME280;22847;42.654;23.370;2023-08-06T11:01:15;93518.53;;;27.35;nan
36932;BME280;22847;42.654;23.370;2023-08-06T11:03:45;93511.28;;;27.46;nan
36932;BME280;22847;42.654;23.370;2023-08-06T11:06:17;93529.22;;;27.50;nan
36932;BME280;22847;42.654;23.370;2023-08-06T11:08:50;93528.66;;;27.54;nan
36932;BME280;22847;42.654;23.370;2023-08-06T11:11:17;93531.25;;;27.10;nan
36932;BME280;22847;42.654;23.370;2023-08-06T11:13:44;93524.72;;;27.31;nan
36932;BME280;22847;42.654;23.370;2023-08-06T11:16:15;93519.09;;;27.81;nan
36932;BME280;22847;42.654;23.370;2023-08-06T11:18:42;93526.44;;;28.05;nan
36932;BME280;22847;42.654;23.370;2023-08-06T11:21:08;93455.13;;;27.75;nan
36932;BME280;22847;42.654;23.370;2023-08-06T11:23:35;93548.31;;;28.22;nan
36932;BME280;22847;42.654;23.370;2023-08-06T11:26:00;93537.94;;;28.10;nan
36932;BME280;22847;42.654;23.370;2023-08-06T11:28:26;93564.44;;;28.17;nan
36932;BME280;22847;42.654;23.370;2023-08-06T11:30:52;93562.22;;;27.85;nan
36932;BME280;22847;42.654;23.370;2023-08-06T11:33:24;93557.34;;;27.48;nan
36932;BME280;22847;42.654;23.370;2023-08-06T11:35:55;93531.59;;;27.47;nan
36932;BME280;22847;42.654;23.370;2023-08-06T11:38:21;93463.59;;;26.94;nan
36932;BME280;22847;42.654;23.370;2023-08-06T11:40:47;93555.81;;;27.27;nan
36932;BME280;22847;42.654;23.370;2023-08-06T11:43:13;93473.09;;;26.51;nan
36932;BME280;22847;42.654;23.370;2023-08-06T11:45:39;93475.53;;;26.37;nan
36932;BME280;22847;42.654;23.370;2023-08-06T11:48:06;93548.19;;;26.70;nan
36932;BME280;22847;42.654;23.370;2023-08-06T11:50:31;93538.34;;;26.50;nan
36932;BME280;22847;42.654;23.370;2023-08-06T11:52:59;93541.00;;;26.50;nan
36932;BME280;22847;42.654;23.370;2023-08-06T11:55:25;93545.81;;;26.53;nan
36932;BME280;22847;42.654;23.370;2023-08-06T11:57:52;93541.00;;;26.35;nan
36932;BME280;22847;42.654;23.370;2023-08-06T12:00:17;93523.38;;;26.44;nan
36932;BME280;22847;42.654;23.370;2023-08-06T12:02:45;93549.53;;;26.62;nan
36932;BME280;22847;42.654;23.370;2023-08-06T12:05:18;93464.06;;;25.91;nan
36932;BME280;22847;42.654;23.370;2023-08-06T12:07:54;93546.38;;;26.35;nan
36932;BME280;22847;42.654;23.370;2023-08-06T12:10:24;93544.22;;;26.52;nan
36932;BME280;22847;42.654;23.370;2023-08-06T12:12:50;93544.16;;;26.82;nan
36932;BME280;22847;42.654;23.370;2023-08-06T12:15:16;93550.00;;;27.04;nan
36932;BME280;22847;42.654;23.370;2023-08-06T12:17:41;93518.69;;;27.10;nan
36932;BME280;22847;42.654;23.370;2023-08-06T12:20:08;93391.16;;;26.75;nan
36932;BME280;22847;42.654;23.370;2023-08-06T12:22:34;93445.22;;;27.31;nan
36932;BME280;22847;42.654;23.370;2023-08-06T12:25:10;93539.75;;;27.81;nan
36932;BME280;22847;42.654;23.370;2023-08-06T12:27:44;93523.88;;;27.89;nan
36932;BME280;22847;42.654;23.370;2023-08-06T12:30:10;93530.16;;;28.14;nan
36932;BME280;22847;42.654;23.370;2023-08-06T12:32:37;93531.28;;;28.03;nan
36932;BME280;22847;42.654;23.370;2023-08-06T12:35:03;93524.22;;;28.17;nan
36932;BME280;22847;42.654;23.370;2023-08-06T12:37:30;93517.19;;;27.87;nan
36932;BME280;22847;42.654;23.370;2023-08-06T12:39:55;93454.00;;;27.42;nan
36932;BME280;22847;42.654;23.370;2023-08-06T12:42:20;93538.19;;;27.70;nan
36932;BME280;22847;42.654;23.370;2023-08-06T12:44:48;93538.91;;;27.36;nan
36932;BME280;22847;42.654;23.370;2023-08-06T12:47:13;93514.63;;;27.13;nan
36932;BME280;22847;42.654;23.370;2023-08-06T12:49:39;93448.69;;;26.73;nan
36932;BME280;22847;42.654;23.370;2023-08-06T12:52:04;93514.63;;;27.18;nan
36932;BME280;22847;42.654;23.370;2023-08-06T12:54:32;93508.22;;;27.14;nan
36932;BME280;22847;42.654;23.370;2023-08-06T12:57:04;93494.28;;;27.12;nan
36932;BME280;22847;42.654;23.370;2023-08-06T12:59:30;93529.47;;;27.44;nan
36932;BME280;22847;42.654;23.370;2023-08-06T13:01:56;93530.22;;;26.95;nan
36932;BME280;22847;42.654;23.370;2023-08-06T13:04:21;93458.59;;;26.72;nan
36932;BME280;22847;42.654;23.370;2023-08-06T13:06:46;93525.31;;;27.18;nan